Time;durP1;ratioP1;P1;durP2;ratioP2;P2;SDS_P1;SDS_P2;PMS_P1;PMS_P2;Temp;Humidity;BMP_temperature;BMP_pressure;BME280_temperature;BME280_humidity;BME280_pressure;Samples;Min_cycle;Max_cycle;Signal;HPM_P1;HPM_P2
2022/06/24 06:15:02;;;;;;;12.32;2.83;;;;;;;;;;5457109;23;20482;-62
2022/06/24 06:17:28;;;;;;;12.10;3.63;;;;;;;;;;4973329;28;20470;-62
2022/06/24 06:19:54;;;;;;;11.43;3.30;;;;;;;;;;4972856;28;20019;-61
2022/06/24 06:22:21;;;;;;;12.38;2.92;;;;;;;;;;4974289;28;20037;-62
2022/06/24 06:24:47;;;;;;;9.07;3.60;;;;;;;;;;4974886;28;20039;-62
2022/06/24 06:27:13;;;;;;;6.70;2.42;;;;;;;;;;4974466;28;20517;-62
2022/06/24 06:29:40;;;;;;;3.28;1.80;;;;;;;;;;4974438;28;20031;-62
2022/06/24 06:32:06;;;;;;;10.65;2.00;;;;;;;;;;4974068;28;20065;-62
2022/06/24 06:34:32;;;;;;;4.28;1.58;;;;;;;;;;4974333;28;20029;-62
2022/06/24 06:36:59;;;;;;;2.90;1.38;;;;;;;;;;4973252;28;20037;-62
2022/06/24 06:39:25;;;;;;;2.50;1.40;;;;;;;;;;4975306;28;20033;-62
2022/06/24 06:41:51;;;;;;;4.05;1.33;;;;;;;;;;4974854;28;20511;-62
2022/06/24 06:44:18;;;;;;;2.13;1.30;;;;;;;;;;4974152;28;20041;-62
2022/06/24 06:46:44;;;;;;;3.30;1.27;;;;;;;;;;4973378;28;20039;-62
2022/06/24 06:49:10;;;;;;;1.83;1.20;;;;;;;;;;4958842;28;20029;-62
2022/06/24 06:51:37;;;;;;;3.03;1.10;;;;;;;;;;4974749;28;20116;-62
2022/06/24 06:54:04;;;;;;;2.50;1.33;;;;;;;;;;4969109;28;20021;-62
2022/06/24 06:56:30;;;;;;;3.78;1.30;;;;;;;;;;4967856;28;20039;-62
2022/06/24 06:58:56;;;;;;;2.50;1.15;;;;;;;;;;4970604;28;20054;-62
2022/06/24 07:01:23;;;;;;;5.88;1.33;;;;;;;;;;4978365;28;20033;-62
2022/06/24 07:03:49;;;;;;;4.82;0.80;;;;;;;;;;4977171;28;20390;-62
2022/06/24 07:06:15;;;;;;;1.48;0.70;;;;;;;;;;4974439;28;20038;-62
2022/06/24 07:08:42;;;;;;;1.65;0.70;;;;;;;;;;4973135;28;20039;-62
2022/06/24 07:11:08;;;;;;;2.25;0.65;;;;;;;;;;4973645;28;20019;-62
2022/06/24 07:13:34;;;;;;;2.70;0.70;;;;;;;;;;4972472;28;20031;-62
2022/06/24 07:16:00;;;;;;;7.13;1.13;;;;;;;;;;4970672;28;20054;-62
2022/06/24 07:18:27;;;;;;;1.58;1.00;;;;;;;;;;4973136;28;20049;-62
2022/06/24 07:20:53;;;;;;;37.05;21.42;;;;;;;;;;4972992;28;20026;-62
2022/06/24 07:23:19;;;;;;;38.25;21.15;;;;;;;;;;4977373;28;20785;-62
2022/06/24 07:25:46;;;;;;;32.55;18.55;;;;;;;;;;4971107;28;20042;-62
2022/06/24 07:28:12;;;;;;;9.23;6.50;;;;;;;;;;4972535;28;20022;-62
2022/06/24 07:30:38;;;;;;;6.88;2.85;;;;;;;;;;4966457;28;20047;-62
2022/06/24 07:33:05;;;;;;;9.32;5.25;;;;;;;;;;4970605;28;20402;-62
2022/06/24 07:35:31;;;;;;;8.60;2.90;;;;;;;;;;4971932;28;20042;-62
2022/06/24 07:37:58;;;;;;;3.67;1.98;;;;;;;;;;4971842;28;20034;-62
2022/06/24 07:40:25;;;;;;;47.03;34.28;;;;;;;;;;4972199;28;20018;-62
2022/06/24 07:42:52;;;;;;;32.63;25.00;;;;;;;;;;4971903;28;20037;-62
2022/06/24 07:45:18;;;;;;;10.98;6.40;;;;;;;;;;4971609;28;20606;-62
2022/06/24 07:47:44;;;;;;;8.82;6.22;;;;;;;;;;4971257;28;20035;-62
2022/06/24 07:50:11;;;;;;;5.93;4.20;;;;;;;;;;4972022;28;20406;-62
2022/06/24 07:52:37;;;;;;;7.88;3.33;;;;;;;;;;4972324;28;20031;-62
2022/06/24 07:57:49;;;;;;;4.07;0.90;;;;;;;;;;4964625;28;20477;-62
2022/06/24 08:00:16;;;;;;;3.28;1.00;;;;;;;;;;4968346;28;20031;-62
2022/06/24 08:02:42;;;;;;;6.57;1.15;;;;;;;;;;4973015;28;20029;-62
2022/06/24 08:05:09;;;;;;;7.18;1.60;;;;;;;;;;4979882;28;20038;-62
2022/06/24 08:07:35;;;;;;;2.60;1.15;;;;;;;;;;4976828;28;20030;-62
2022/06/24 08:10:01;;;;;;;3.60;1.40;;;;;;;;;;4976295;28;20033;-62
2022/06/24 08:12:28;;;;;;;6.70;1.17;;;;;;;;;;4971729;28;20038;-62
2022/06/24 08:14:54;;;;;;;1.92;1.17;;;;;;;;;;4971381;28;20388;-62
2022/06/24 08:17:20;;;;;;;4.05;1.33;;;;;;;;;;4971844;28;20100;-62
2022/06/24 08:19:47;;;;;;;3.22;1.30;;;;;;;;;;4970786;28;20023;-62
2022/06/24 08:22:13;;;;;;;6.22;1.17;;;;;;;;;;4971910;28;20027;-62
2022/06/24 08:24:40;;;;;;;10.10;0.98;;;;;;;;;;4970096;28;20446;-62
2022/06/24 08:27:07;;;;;;;3.00;0.52;;;;;;;;;;4970457;28;20023;-62
2022/06/24 08:29:33;;;;;;;2.63;0.70;;;;;;;;;;4971588;28;20061;-62
2022/06/24 08:32:00;;;;;;;5.05;0.93;;;;;;;;;;4971652;28;20033;-62
2022/06/24 08:34:26;;;;;;;3.88;0.80;;;;;;;;;;4971377;28;20035;-62
2022/06/24 08:36:52;;;;;;;4.40;1.17;;;;;;;;;;4971407;28;20041;-62
2022/06/24 08:39:18;;;;;;;2.90;1.30;;;;;;;;;;4971595;28;20442;-62
2022/06/24 08:41:48;;;;;;;2.28;1.08;;;;;;;;;;4970968;28;20023;-62
2022/06/24 08:44:14;;;;;;;6.53;1.25;;;;;;;;;;4971545;28;20027;-62
2022/06/24 08:46:40;;;;;;;3.83;1.00;;;;;;;;;;4971168;28;20036;-62
2022/06/24 08:49:07;;;;;;;4.70;1.10;;;;;;;;;;4971194;28;20122;-62
2022/06/24 08:51:37;;;;;;;1.27;0.80;;;;;;;;;;4971796;28;20035;-62
2022/06/24 08:54:03;;;;;;;4.65;1.00;;;;;;;;;;4976443;28;20030;-63
2022/06/24 08:56:30;;;;;;;4.05;0.90;;;;;;;;;;4975861;28;20023;-62
2022/06/24 08:58:57;;;;;;;1.85;0.88;;;;;;;;;;4971247;28;20037;-62
2022/06/24 09:01:23;;;;;;;4.43;1.02;;;;;;;;;;4971167;28;20027;-62
2022/06/24 09:03:49;;;;;;;2.30;0.70;;;;;;;;;;4971216;28;20035;-60
2022/06/24 09:06:17;;;;;;;1.88;0.60;;;;;;;;;;4971530;28;20050;-60
2022/06/24 09:08:48;;;;;;;2.60;0.60;;;;;;;;;;4971168;28;20033;-60
2022/06/24 09:11:15;;;;;;;2.63;0.68;;;;;;;;;;4970722;28;20015;-59
2022/06/24 09:13:44;;;;;;;0.68;0.60;;;;;;;;;;4970991;28;20499;-60
2022/06/24 09:16:12;;;;;;;0.98;0.60;;;;;;;;;;4971067;28;20046;-60
2022/06/24 09:18:38;;;;;;;0.63;0.60;;;;;;;;;;4970695;28;20022;-60
2022/06/24 09:21:05;;;;;;;1.10;0.60;;;;;;;;;;4970153;28;20039;-60
2022/06/24 09:23:31;;;;;;;0.65;0.40;;;;;;;;;;4971039;28;20023;-60
2022/06/24 09:26:03;;;;;;;0.80;0.50;;;;;;;;;;4970424;28;20049;-60
2022/06/24 09:28:31;;;;;;;0.60;0.50;;;;;;;;;;4971418;28;20015;-60
2022/06/24 09:31:01;;;;;;;0.73;0.45;;;;;;;;;;4969984;28;20035;-60
2022/06/24 09:33:28;;;;;;;1.25;0.50;;;;;;;;;;4957623;28;20567;-60
2022/06/24 09:36:04;;;;;;;2.63;0.30;;;;;;;;;;4970307;28;20039;-60
2022/06/24 09:38:31;;;;;;;0.25;0.22;;;;;;;;;;4978400;28;20487;-60
2022/06/24 09:41:06;;;;;;;1.60;0.52;;;;;;;;;;4973990;28;20031;-60
2022/06/24 09:43:33;;;;;;;0.65;0.50;;;;;;;;;;4984489;28;20023;-60
2022/06/24 09:46:00;;;;;;;1.17;0.38;;;;;;;;;;4974264;28;20398;-60
2022/06/24 09:48:30;;;;;;;1.15;0.50;;;;;;;;;;4974808;28;20030;-59
2022/06/24 09:50:57;;;;;;;2.10;0.60;;;;;;;;;;4974495;28;20029;-59
2022/06/24 09:53:25;;;;;;;1.15;0.60;;;;;;;;;;4974282;28;20422;-60
2022/06/24 09:55:53;;;;;;;0.82;0.60;;;;;;;;;;4972478;28;20037;-60
2022/06/24 09:58:19;;;;;;;2.35;0.32;;;;;;;;;;4972902;28;20033;-60
2022/06/24 10:00:46;;;;;;;0.75;0.57;;;;;;;;;;4974463;28;20109;-60
2022/06/24 10:03:13;;;;;;;1.65;0.60;;;;;;;;;;4973622;28;20033;-60
2022/06/24 10:05:41;;;;;;;1.58;0.50;;;;;;;;;;4973698;28;20495;-60
2022/06/24 10:08:12;;;;;;;0.82;0.50;;;;;;;;;;4974109;28;20019;-60
2022/06/24 10:10:49;;;;;;;0.80;0.47;;;;;;;;;;4973655;28;20035;-60
2022/06/24 10:13:32;;;;;;;0.55;0.30;;;;;;;;;;4958797;28;20533;-60
2022/06/24 10:16:00;;;;;;;2.72;0.32;;;;;;;;;;4973742;28;20047;-60
2022/06/24 10:18:29;;;;;;;3.28;0.30;;;;;;;;;;4972715;28;20041;-60
2022/06/24 10:20:57;;;;;;;0.55;0.30;;;;;;;;;;4974084;28;20031;-59
2022/06/24 10:23:43;;;;;;;0.43;0.30;;;;;;;;;;4973474;28;20037;-60
2022/06/24 10:26:11;;;;;;;0.82;0.55;;;;;;;;;;4973637;28;20031;-60
2022/06/24 10:28:56;;;;;;;2.95;0.45;;;;;;;;;;4973601;28;20029;-60
2022/06/24 10:31:32;;;;;;;4.63;0.40;;;;;;;;;;4958437;28;20026;-60
2022/06/24 10:33:58;;;;;;;1.00;0.50;;;;;;;;;;4973615;28;20041;-60
2022/06/24 10:36:31;;;;;;;0.40;0.40;;;;;;;;;;4973801;28;20023;-60
2022/06/24 10:39:09;;;;;;;0.68;0.40;;;;;;;;;;4956075;28;20031;-60
2022/06/24 10:41:39;;;;;;;0.93;0.45;;;;;;;;;;4973680;28;20035;-60
2022/06/24 10:44:24;;;;;;;0.40;0.40;;;;;;;;;;4973551;28;20359;-60
2022/06/24 10:47:05;;;;;;;0.73;0.50;;;;;;;;;;4973466;28;20414;-60
2022/06/24 10:49:54;;;;;;;5.53;0.30;;;;;;;;;;4973117;28;20026;-60
2022/06/24 10:52:39;;;;;;;0.77;0.30;;;;;;;;;;4958881;28;20495;-60
2022/06/24 10:55:17;;;;;;;0.52;0.43;;;;;;;;;;4973030;28;20030;-60
2022/06/24 10:57:44;;;;;;;2.05;0.50;;;;;;;;;;4969997;28;20107;-60
2022/06/24 11:00:15;;;;;;;0.57;0.30;;;;;;;;;;4973011;28;20023;-60
2022/06/24 11:02:42;;;;;;;1.05;0.40;;;;;;;;;;4973043;28;20039;-60
2022/06/24 11:05:38;;;;;;;0.65;0.40;;;;;;;;;;4972963;28;20035;-60
2022/06/24 11:08:12;;;;;;;0.40;0.30;;;;;;;;;;4912674;29;20036;-60
2022/06/24 11:10:38;;;;;;;1.08;0.52;;;;;;;;;;4910147;29;20035;-60
2022/06/24 11:13:04;;;;;;;1.50;0.40;;;;;;;;;;4922632;29;20207;-59
2022/06/24 11:15:34;;;;;;;0.90;0.30;;;;;;;;;;4909517;29;20064;-60
2022/06/24 11:18:14;;;;;;;0.22;0.22;;;;;;;;;;4908996;29;20509;-60
2022/06/24 11:20:59;;;;;;;0.20;0.20;;;;;;;;;;4909271;29;20038;-60
2022/06/24 11:23:26;;;;;;;0.57;0.30;;;;;;;;;;4908864;29;20028;-60
2022/06/24 11:26:03;;;;;;;2.97;0.30;;;;;;;;;;4901511;29;20550;-60
2022/06/24 11:28:32;;;;;;;1.80;0.50;;;;;;;;;;4903148;29;20540;-60
2022/06/24 11:31:13;;;;;;;0.55;0.40;;;;;;;;;;4911385;29;20116;-60
2022/06/24 11:33:40;;;;;;;0.57;0.40;;;;;;;;;;4908473;29;20050;-60
2022/06/24 11:36:06;;;;;;;0.90;0.40;;;;;;;;;;4899510;29;20058;-60
2022/06/24 11:38:36;;;;;;;1.80;0.50;;;;;;;;;;4903317;29;20044;-60
2022/06/24 11:41:02;;;;;;;1.37;0.53;;;;;;;;;;4900296;29;20035;-60
2022/06/24 11:43:29;;;;;;;1.95;0.43;;;;;;;;;;4916629;29;20288;-60
2022/06/24 11:45:57;;;;;;;0.20;0.20;;;;;;;;;;4970152;28;20061;-60
2022/06/24 11:48:25;;;;;;;1.85;0.40;;;;;;;;;;4970869;28;20023;-60
2022/06/24 11:50:52;;;;;;;0.70;0.45;;;;;;;;;;4972027;28;20495;-60
2022/06/24 11:53:23;;;;;;;2.33;0.40;;;;;;;;;;4971875;28;20447;-60
2022/06/24 11:55:50;;;;;;;0.77;0.47;;;;;;;;;;4971913;28;20022;-60
2022/06/24 11:58:18;;;;;;;2.28;0.40;;;;;;;;;;4972181;28;20022;-60
2022/06/24 12:00:45;;;;;;;5.18;0.50;;;;;;;;;;4972635;28;20035;-60
2022/06/24 12:03:12;;;;;;;0.73;0.40;;;;;;;;;;4972012;28;20061;-60
2022/06/24 12:05:39;;;;;;;2.72;0.40;;;;;;;;;;4971841;28;20042;-60
2022/06/24 12:08:06;;;;;;;2.17;0.50;;;;;;;;;;4971845;28;20030;-59
2022/06/24 12:10:32;;;;;;;1.17;0.38;;;;;;;;;;4971427;28;20026;-59
2022/06/24 12:13:08;;;;;;;0.30;0.30;;;;;;;;;;4971630;28;20422;-60
2022/06/24 12:15:42;;;;;;;1.10;0.60;;;;;;;;;;4964597;28;20051;-60
2022/06/24 12:18:15;;;;;;;1.42;0.45;;;;;;;;;;4971513;28;20377;-59
2022/06/24 12:20:42;;;;;;;1.02;0.40;;;;;;;;;;4971244;28;20023;-59
2022/06/24 12:23:18;;;;;;;2.53;0.30;;;;;;;;;;4971783;28;20506;-59
2022/06/24 12:25:49;;;;;;;1.20;0.40;;;;;;;;;;4971819;28;20043;-59
2022/06/24 12:28:15;;;;;;;;;;;;;;;;;;4957328;28;20487;-60
2022/06/24 12:30:41;;;;;;;2.08;0.50;;;;;;;;;;4972545;28;19920;-60
2022/06/24 12:33:12;;;;;;;2.30;0.40;;;;;;;;;;4971569;28;20022;-59
2022/06/24 12:35:38;;;;;;;;;;;;;;;;;;4969371;28;20037;-59
2022/06/24 12:38:05;;;;;;;0.77;0.40;;;;;;;;;;4971467;28;19910;-60
2022/06/24 12:40:31;;;;;;;0.75;0.68;;;;;;;;;;4971770;28;20026;-59
2022/06/24 12:43:13;;;;;;;0.52;0.40;;;;;;;;;;4971432;28;20027;-59
2022/06/24 12:45:41;;;;;;;1.83;0.50;;;;;;;;;;4967027;28;20522;-60
2022/06/24 12:50:57;;;;;;;1.33;0.50;;;;;;;;;;4971234;28;20027;-60
2022/06/24 12:53:23;;;;;;;0.30;0.30;;;;;;;;;;4971592;28;20038;-60
2022/06/24 12:55:49;;;;;;;1.85;0.40;;;;;;;;;;4971304;28;20035;-59
2022/06/24 12:58:16;;;;;;;0.40;0.40;;;;;;;;;;4971811;28;20030;-59
2022/06/24 13:00:42;;;;;;;0.75;0.40;;;;;;;;;;4971549;28;20026;-59
2022/06/24 13:03:08;;;;;;;2.35;0.40;;;;;;;;;;4974200;28;20533;-60
2022/06/24 13:05:35;;;;;;;4.32;3.80;;;;;;;;;;4976789;28;20042;-59
2022/06/24 13:08:01;;;;;;;23.30;14.10;;;;;;;;;;4969673;28;20033;-60
2022/06/24 13:10:28;;;;;;;12.82;8.02;;;;;;;;;;4975813;28;20025;-59
2022/06/24 13:12:55;;;;;;;10.52;7.15;;;;;;;;;;4986279;28;20487;-59
2022/06/24 13:15:22;;;;;;;1.00;0.57;;;;;;;;;;4975143;28;20037;-59
2022/06/24 13:17:49;;;;;;;0.82;0.40;;;;;;;;;;4974364;28;20045;-59
2022/06/24 13:20:15;;;;;;;0.43;0.40;;;;;;;;;;4979123;28;20229;-60
2022/06/24 13:22:42;;;;;;;2.17;0.47;;;;;;;;;;4977392;28;20398;-60
2022/06/24 13:25:09;;;;;;;1.52;0.50;;;;;;;;;;4972121;28;20039;-59
2022/06/24 13:27:36;;;;;;;0.40;0.40;;;;;;;;;;4957729;28;20045;-60
2022/06/24 13:30:03;;;;;;;0.73;0.32;;;;;;;;;;4972975;28;20037;-59
2022/06/24 13:32:30;;;;;;;1.42;0.30;;;;;;;;;;4974396;28;20084;-59
2022/06/24 13:34:56;;;;;;;1.23;0.50;;;;;;;;;;4978606;28;20022;-59
2022/06/24 13:37:22;;;;;;;0.65;0.32;;;;;;;;;;4973594;28;20039;-59
2022/06/24 13:39:49;;;;;;;0.75;0.40;;;;;;;;;;4982369;28;20023;-59
2022/06/24 13:42:19;;;;;;;1.50;0.30;;;;;;;;;;4980410;28;20494;-59
2022/06/24 13:44:45;;;;;;;6.25;0.70;;;;;;;;;;4974570;28;20057;-59
2022/06/24 13:47:11;;;;;;;2.20;0.50;;;;;;;;;;4978663;28;20037;-59
2022/06/24 13:49:37;;;;;;;3.63;0.50;;;;;;;;;;4979483;28;20038;-59
2022/06/24 13:52:04;;;;;;;0.40;0.40;;;;;;;;;;4973727;28;20038;-59
2022/06/24 13:54:30;;;;;;;1.00;0.50;;;;;;;;;;4974828;28;20039;-59
2022/06/24 13:56:57;;;;;;;1.35;0.55;;;;;;;;;;4974418;28;20027;-60
2022/06/24 13:59:23;;;;;;;0.60;0.60;;;;;;;;;;4974471;28;20088;-59
2022/06/24 14:01:49;;;;;;;1.15;0.60;;;;;;;;;;4973869;28;20027;-60
2022/06/24 14:04:16;;;;;;;1.75;0.68;;;;;;;;;;4974387;28;20027;-59
2022/06/24 14:06:42;;;;;;;0.47;0.40;;;;;;;;;;4974781;28;20042;-59
2022/06/24 14:09:08;;;;;;;3.13;0.40;;;;;;;;;;4974001;28;20025;-59
2022/06/24 14:11:35;;;;;;;1.13;0.60;;;;;;;;;;4956490;28;20406;-59
2022/06/24 14:16:47;;;;;;;2.45;0.40;;;;;;;;;;4973568;28;20041;-59
2022/06/24 14:19:14;;;;;;;1.55;0.60;;;;;;;;;;4978765;28;20053;-59
2022/06/24 14:21:41;;;;;;;2.17;0.65;;;;;;;;;;4959231;28;20035;-59
2022/06/24 14:26:52;;;;;;;1.65;0.88;;;;;;;;;;4972921;28;20406;-59
2022/06/24 14:29:18;;;;;;;1.42;0.60;;;;;;;;;;4973141;28;20038;-60
2022/06/24 14:31:44;;;;;;;0.90;0.57;;;;;;;;;;4973308;28;20033;-59
2022/06/24 14:34:11;;;;;;;2.13;0.50;;;;;;;;;;4973964;28;20025;-59
2022/06/24 14:36:37;;;;;;;3.08;0.50;;;;;;;;;;4979055;28;20022;-59
2022/06/24 14:41:48;;;;;;;1.02;0.65;;;;;;;;;;4978184;28;20032;-59
2022/06/24 14:44:14;;;;;;;3.85;0.60;;;;;;;;;;4980261;28;20511;-59
2022/06/24 14:46:41;;;;;;;1.10;0.50;;;;;;;;;;4973369;28;20041;-59
2022/06/24 14:49:07;;;;;;;1.42;0.60;;;;;;;;;;4973536;28;20463;-59
2022/06/24 14:51:33;;;;;;;5.65;4.85;;;;;;;;;;4973736;28;20039;-59
2022/06/24 14:54:00;;;;;;;3.47;0.93;;;;;;;;;;4972479;28;20031;-59
2022/06/24 14:56:27;;;;;;;7.85;0.82;;;;;;;;;;4972945;28;20023;-59
2022/06/24 14:58:53;;;;;;;0.95;0.75;;;;;;;;;;4972703;28;20095;-59
2022/06/24 15:01:19;;;;;;;2.55;1.77;;;;;;;;;;4973416;28;20039;-59
2022/06/24 15:03:46;;;;;;;4.65;3.25;;;;;;;;;;4973111;28;20023;-60
2022/06/24 15:06:12;;;;;;;2.00;1.70;;;;;;;;;;4973351;28;20035;-59
2022/06/24 15:08:38;;;;;;;0.95;0.60;;;;;;;;;;4971894;28;20027;-59
2022/06/24 15:11:05;;;;;;;1.08;0.60;;;;;;;;;;4972764;28;20035;-59
2022/06/24 15:13:31;;;;;;;1.45;0.60;;;;;;;;;;4972829;28;20511;-59
2022/06/24 15:15:58;;;;;;;0.93;0.50;;;;;;;;;;4972876;28;20049;-59
2022/06/24 15:18:24;;;;;;;2.28;0.65;;;;;;;;;;4973329;28;20038;-60
2022/06/24 15:20:50;;;;;;;2.20;0.60;;;;;;;;;;4973250;28;20038;-59
2022/06/24 15:23:17;;;;;;;2.35;0.70;;;;;;;;;;4972655;28;20038;-59
2022/06/24 15:25:43;;;;;;;3.35;0.70;;;;;;;;;;4969307;28;20589;-60
2022/06/24 15:28:09;;;;;;;0.80;0.60;;;;;;;;;;4968620;28;20015;-59
2022/06/24 15:30:36;;;;;;;1.80;0.65;;;;;;;;;;4972376;28;20299;-60
2022/06/24 15:33:03;;;;;;;0.73;0.52;;;;;;;;;;4971477;28;20076;-59
